<?xml version="1.0" encoding="UTF-8" standalone="no" ?>
<gpx xmlns="http://www.topografix.com/GPX/1/1" xmlns:xsi="http://www.w3.org/2001/XMLSchema-instance" xsi:schemaLocation="http://www.topografix.com/GPX/1/1 http://www.topografix.com/GPX/1/1/gpx.xsd" version="1.1" creator="VisuGPX - https://www.visugpx.com">
  <metadata>
    <name>Boucle coquillages et pommes de pin</name>
    <desc><![CDATA[st jean de monts (plage et forêt)]]></desc>
  </metadata>
  <trk>
    <name><![CDATA[10567903-Boucle coquillages et pommes de pin]]></name>
    <trkseg>
      <trkpt lat="46.78123" lon="-2.06777">
        <ele>6</ele>
        <time>2020-04-29T09:29:47Z</time>
      </trkpt>
      <trkpt lat="46.78112" lon="-2.06763">
        <ele>6</ele>
        <time>2020-04-29T09:29:50Z</time>
      </trkpt>
      <trkpt lat="46.78092" lon="-2.06726">
        <ele>9</ele>
        <time>2020-04-29T09:29:55Z</time>
      </trkpt>
      <trkpt lat="46.78087" lon="-2.06721">
        <ele>9</ele>
        <time>2020-04-29T09:29:56Z</time>
      </trkpt>
      <trkpt lat="46.7807" lon="-2.06716">
        <ele>9</ele>
        <time>2020-04-29T09:30:00Z</time>
      </trkpt>
      <trkpt lat="46.78063" lon="-2.06712">
        <ele>8</ele>
        <time>2020-04-29T09:30:01Z</time>
      </trkpt>
      <trkpt lat="46.78031" lon="-2.06659">
        <ele>9</ele>
        <time>2020-04-29T09:30:09Z</time>
      </trkpt>
      <trkpt lat="46.78027" lon="-2.06645">
        <ele>9</ele>
        <time>2020-04-29T09:30:11Z</time>
      </trkpt>
      <trkpt lat="46.78025" lon="-2.06622">
        <ele>10</ele>
        <time>2020-04-29T09:30:14Z</time>
      </trkpt>
      <trkpt lat="46.78019" lon="-2.06607">
        <ele>10</ele>
        <time>2020-04-29T09:30:16Z</time>
      </trkpt>
      <trkpt lat="46.78013" lon="-2.06599">
        <ele>10</ele>
        <time>2020-04-29T09:30:18Z</time>
      </trkpt>
      <trkpt lat="46.78001" lon="-2.06594">
        <ele>10</ele>
        <time>2020-04-29T09:30:20Z</time>
      </trkpt>
      <trkpt lat="46.77992" lon="-2.06589">
        <ele>10</ele>
        <time>2020-04-29T09:30:22Z</time>
      </trkpt>
      <trkpt lat="46.77966" lon="-2.06546">
        <ele>9</ele>
        <time>2020-04-29T09:30:29Z</time>
      </trkpt>
      <trkpt lat="46.77945" lon="-2.06509">
        <ele>10</ele>
        <time>2020-04-29T09:30:34Z</time>
      </trkpt>
      <trkpt lat="46.77941" lon="-2.06491">
        <ele>10</ele>
        <time>2020-04-29T09:30:37Z</time>
      </trkpt>
      <trkpt lat="46.7794" lon="-2.06421">
        <ele>11</ele>
        <time>2020-04-29T09:30:45Z</time>
      </trkpt>
      <trkpt lat="46.77934" lon="-2.06406">
        <ele>10</ele>
        <time>2020-04-29T09:30:47Z</time>
      </trkpt>
      <trkpt lat="46.77922" lon="-2.06384">
        <ele>10</ele>
        <time>2020-04-29T09:30:51Z</time>
      </trkpt>
      <trkpt lat="46.77916" lon="-2.06377">
        <ele>9</ele>
        <time>2020-04-29T09:30:52Z</time>
      </trkpt>
      <trkpt lat="46.77904" lon="-2.06365">
        <ele>9</ele>
        <time>2020-04-29T09:30:55Z</time>
      </trkpt>
      <trkpt lat="46.77891" lon="-2.06356">
        <ele>8</ele>
        <time>2020-04-29T09:30:57Z</time>
      </trkpt>
      <trkpt lat="46.7788" lon="-2.06354">
        <ele>7</ele>
        <time>2020-04-29T09:30:59Z</time>
      </trkpt>
      <trkpt lat="46.77856" lon="-2.06353">
        <ele>6</ele>
        <time>2020-04-29T09:31:04Z</time>
      </trkpt>
      <trkpt lat="46.77851" lon="-2.06348">
        <ele>6</ele>
        <time>2020-04-29T09:31:05Z</time>
      </trkpt>
      <trkpt lat="46.77742" lon="-2.06162">
        <ele>8</ele>
        <time>2020-04-29T09:31:35Z</time>
      </trkpt>
      <trkpt lat="46.77695" lon="-2.06083">
        <ele>5</ele>
        <time>2020-04-29T09:31:47Z</time>
      </trkpt>
      <trkpt lat="46.77663" lon="-2.06033">
        <ele>6</ele>
        <time>2020-04-29T09:31:56Z</time>
      </trkpt>
      <trkpt lat="46.77621" lon="-2.05969">
        <ele>5</ele>
        <time>2020-04-29T09:32:06Z</time>
      </trkpt>
      <trkpt lat="46.77585" lon="-2.05913">
        <ele>6</ele>
        <time>2020-04-29T09:32:16Z</time>
      </trkpt>
      <trkpt lat="46.77545" lon="-2.05854">
        <ele>5</ele>
        <time>2020-04-29T09:32:26Z</time>
      </trkpt>
      <trkpt lat="46.77513" lon="-2.05807">
        <ele>7</ele>
        <time>2020-04-29T09:32:34Z</time>
      </trkpt>
      <trkpt lat="46.77472" lon="-2.05753">
        <ele>8</ele>
        <time>2020-04-29T09:32:44Z</time>
      </trkpt>
      <trkpt lat="46.77465" lon="-2.05746">
        <ele>8</ele>
        <time>2020-04-29T09:32:45Z</time>
      </trkpt>
      <trkpt lat="46.77418" lon="-2.05681">
        <ele>5</ele>
        <time>2020-04-29T09:32:57Z</time>
      </trkpt>
      <trkpt lat="46.77403" lon="-2.05667">
        <ele>4</ele>
        <time>2020-04-29T09:33:00Z</time>
      </trkpt>
      <trkpt lat="46.77371" lon="-2.05626">
        <ele>5</ele>
        <time>2020-04-29T09:33:08Z</time>
      </trkpt>
      <trkpt lat="46.77361" lon="-2.05609">
        <ele>6</ele>
        <time>2020-04-29T09:33:10Z</time>
      </trkpt>
      <trkpt lat="46.77341" lon="-2.05582">
        <ele>7</ele>
        <time>2020-04-29T09:33:15Z</time>
      </trkpt>
      <trkpt lat="46.77317" lon="-2.05549">
        <ele>7</ele>
        <time>2020-04-29T09:33:21Z</time>
      </trkpt>
      <trkpt lat="46.77285" lon="-2.05499">
        <ele>7</ele>
        <time>2020-04-29T09:33:29Z</time>
      </trkpt>
      <trkpt lat="46.77268" lon="-2.05479">
        <ele>6</ele>
        <time>2020-04-29T09:33:33Z</time>
      </trkpt>
      <trkpt lat="46.77255" lon="-2.05469">
        <ele>5</ele>
        <time>2020-04-29T09:33:36Z</time>
      </trkpt>
      <trkpt lat="46.77248" lon="-2.05461">
        <ele>5</ele>
        <time>2020-04-29T09:33:37Z</time>
      </trkpt>
      <trkpt lat="46.77242" lon="-2.0545">
        <ele>5</ele>
        <time>2020-04-29T09:33:39Z</time>
      </trkpt>
      <trkpt lat="46.77231" lon="-2.05433">
        <ele>5</ele>
        <time>2020-04-29T09:33:42Z</time>
      </trkpt>
      <trkpt lat="46.77209" lon="-2.05405">
        <ele>5</ele>
        <time>2020-04-29T09:33:47Z</time>
      </trkpt>
      <trkpt lat="46.77191" lon="-2.05375">
        <ele>4</ele>
        <time>2020-04-29T09:33:52Z</time>
      </trkpt>
      <trkpt lat="46.77142" lon="-2.05313">
        <ele>5</ele>
        <time>2020-04-29T09:34:04Z</time>
      </trkpt>
      <trkpt lat="46.77113" lon="-2.0527">
        <ele>5</ele>
        <time>2020-04-29T09:34:11Z</time>
      </trkpt>
      <trkpt lat="46.77098" lon="-2.05252">
        <ele>5</ele>
        <time>2020-04-29T09:34:14Z</time>
      </trkpt>
      <trkpt lat="46.77084" lon="-2.05225">
        <ele>6</ele>
        <time>2020-04-29T09:34:19Z</time>
      </trkpt>
      <trkpt lat="46.77072" lon="-2.05202">
        <ele>7</ele>
        <time>2020-04-29T09:34:22Z</time>
      </trkpt>
      <trkpt lat="46.77064" lon="-2.05161">
        <ele>8</ele>
        <time>2020-04-29T09:34:27Z</time>
      </trkpt>
      <trkpt lat="46.77066" lon="-2.0515">
        <ele>8</ele>
        <time>2020-04-29T09:34:29Z</time>
      </trkpt>
      <trkpt lat="46.77068" lon="-2.05142">
        <ele>8</ele>
        <time>2020-04-29T09:34:30Z</time>
      </trkpt>
      <trkpt lat="46.77069" lon="-2.05136">
        <ele>8</ele>
        <time>2020-04-29T09:34:30Z</time>
      </trkpt>
      <trkpt lat="46.77085" lon="-2.05093">
        <ele>7</ele>
        <time>2020-04-29T09:34:36Z</time>
      </trkpt>
      <trkpt lat="46.77111" lon="-2.05027">
        <ele>5</ele>
        <time>2020-04-29T09:34:46Z</time>
      </trkpt>
      <trkpt lat="46.77132" lon="-2.04962">
        <ele>4</ele>
        <time>2020-04-29T09:34:54Z</time>
      </trkpt>
      <trkpt lat="46.77139" lon="-2.04939">
        <ele>4</ele>
        <time>2020-04-29T09:34:57Z</time>
      </trkpt>
      <trkpt lat="46.77139" lon="-2.04925">
        <ele>3</ele>
        <time>2020-04-29T09:34:59Z</time>
      </trkpt>
      <trkpt lat="46.77133" lon="-2.04875">
        <ele>3</ele>
        <time>2020-04-29T09:35:05Z</time>
      </trkpt>
      <trkpt lat="46.77129" lon="-2.04868">
        <ele>3</ele>
        <time>2020-04-29T09:35:06Z</time>
      </trkpt>
      <trkpt lat="46.77125" lon="-2.04857">
        <ele>3</ele>
        <time>2020-04-29T09:35:08Z</time>
      </trkpt>
      <trkpt lat="46.77115" lon="-2.04833">
        <ele>3</ele>
        <time>2020-04-29T09:35:11Z</time>
      </trkpt>
      <trkpt lat="46.77082" lon="-2.04751">
        <ele>3</ele>
        <time>2020-04-29T09:35:23Z</time>
      </trkpt>
      <trkpt lat="46.77047" lon="-2.04661">
        <ele>3</ele>
        <time>2020-04-29T09:35:36Z</time>
      </trkpt>
      <trkpt lat="46.77047" lon="-2.04665">
        <ele>3</ele>
        <time>2020-04-29T09:35:36Z</time>
      </trkpt>
      <trkpt lat="46.77042" lon="-2.0465">
        <ele>3</ele>
        <time>2020-04-29T09:35:38Z</time>
      </trkpt>
      <trkpt lat="46.77037" lon="-2.0464">
        <ele>3</ele>
        <time>2020-04-29T09:35:40Z</time>
      </trkpt>
      <trkpt lat="46.77029" lon="-2.04625">
        <ele>3</ele>
        <time>2020-04-29T09:35:42Z</time>
      </trkpt>
      <trkpt lat="46.76983" lon="-2.04555">
        <ele>5</ele>
        <time>2020-04-29T09:35:54Z</time>
      </trkpt>
      <trkpt lat="46.76894" lon="-2.04421">
        <ele>3</ele>
        <time>2020-04-29T09:36:17Z</time>
      </trkpt>
      <trkpt lat="46.76875" lon="-2.04398">
        <ele>3</ele>
        <time>2020-04-29T09:36:21Z</time>
      </trkpt>
      <trkpt lat="46.76825" lon="-2.04351">
        <ele>3</ele>
        <time>2020-04-29T09:36:32Z</time>
      </trkpt>
      <trkpt lat="46.76816" lon="-2.04349">
        <ele>3</ele>
        <time>2020-04-29T09:36:33Z</time>
      </trkpt>
      <trkpt lat="46.76757" lon="-2.0429">
        <ele>3</ele>
        <time>2020-04-29T09:36:46Z</time>
      </trkpt>
      <trkpt lat="46.76754" lon="-2.04279">
        <ele>3</ele>
        <time>2020-04-29T09:36:47Z</time>
      </trkpt>
      <trkpt lat="46.76742" lon="-2.0426">
        <ele>3</ele>
        <time>2020-04-29T09:36:50Z</time>
      </trkpt>
      <trkpt lat="46.76729" lon="-2.04243">
        <ele>3</ele>
        <time>2020-04-29T09:36:54Z</time>
      </trkpt>
      <trkpt lat="46.76711" lon="-2.0421">
        <ele>3</ele>
        <time>2020-04-29T09:36:59Z</time>
      </trkpt>
      <trkpt lat="46.767" lon="-2.04202">
        <ele>3</ele>
        <time>2020-04-29T09:37:01Z</time>
      </trkpt>
      <trkpt lat="46.76698" lon="-2.04196">
        <ele>3</ele>
        <time>2020-04-29T09:37:02Z</time>
      </trkpt>
      <trkpt lat="46.76698" lon="-2.04186">
        <ele>3</ele>
        <time>2020-04-29T09:37:03Z</time>
      </trkpt>
      <trkpt lat="46.76701" lon="-2.0418">
        <ele>3</ele>
        <time>2020-04-29T09:37:04Z</time>
      </trkpt>
      <trkpt lat="46.76683" lon="-2.04133">
        <ele>4</ele>
        <time>2020-04-29T09:37:10Z</time>
      </trkpt>
      <trkpt lat="46.7666" lon="-2.04072">
        <ele>5</ele>
        <time>2020-04-29T09:37:19Z</time>
      </trkpt>
      <trkpt lat="46.76643" lon="-2.04028">
        <ele>6</ele>
        <time>2020-04-29T09:37:25Z</time>
      </trkpt>
      <trkpt lat="46.76626" lon="-2.03978">
        <ele>6</ele>
        <time>2020-04-29T09:37:32Z</time>
      </trkpt>
      <trkpt lat="46.76616" lon="-2.03934">
        <ele>7</ele>
        <time>2020-04-29T09:37:37Z</time>
      </trkpt>
      <trkpt lat="46.76614" lon="-2.03912">
        <ele>7</ele>
        <time>2020-04-29T09:37:40Z</time>
      </trkpt>
      <trkpt lat="46.76613" lon="-2.03887">
        <ele>8</ele>
        <time>2020-04-29T09:37:43Z</time>
      </trkpt>
      <trkpt lat="46.76612" lon="-2.03881">
        <ele>8</ele>
        <time>2020-04-29T09:37:44Z</time>
      </trkpt>
      <trkpt lat="46.7661" lon="-2.03831">
        <ele>10</ele>
        <time>2020-04-29T09:37:50Z</time>
      </trkpt>
      <trkpt lat="46.76611" lon="-2.03807">
        <ele>11</ele>
        <time>2020-04-29T09:37:53Z</time>
      </trkpt>
      <trkpt lat="46.76609" lon="-2.03758">
        <ele>12</ele>
        <time>2020-04-29T09:37:59Z</time>
      </trkpt>
      <trkpt lat="46.76605" lon="-2.03707">
        <ele>13</ele>
        <time>2020-04-29T09:38:05Z</time>
      </trkpt>
      <trkpt lat="46.76598" lon="-2.03676">
        <ele>13</ele>
        <time>2020-04-29T09:38:09Z</time>
      </trkpt>
      <trkpt lat="46.7659" lon="-2.0364">
        <ele>12</ele>
        <time>2020-04-29T09:38:14Z</time>
      </trkpt>
      <trkpt lat="46.7657" lon="-2.03565">
        <ele>10</ele>
        <time>2020-04-29T09:38:24Z</time>
      </trkpt>
      <trkpt lat="46.76545" lon="-2.03507">
        <ele>10</ele>
        <time>2020-04-29T09:38:32Z</time>
      </trkpt>
      <trkpt lat="46.76529" lon="-2.03476">
        <ele>9</ele>
        <time>2020-04-29T09:38:37Z</time>
      </trkpt>
      <trkpt lat="46.76501" lon="-2.03424">
        <ele>8</ele>
        <time>2020-04-29T09:38:45Z</time>
      </trkpt>
      <trkpt lat="46.76495" lon="-2.0341">
        <ele>8</ele>
        <time>2020-04-29T09:38:47Z</time>
      </trkpt>
      <trkpt lat="46.76485" lon="-2.03376">
        <ele>7</ele>
        <time>2020-04-29T09:38:51Z</time>
      </trkpt>
      <trkpt lat="46.76466" lon="-2.03313">
        <ele>7</ele>
        <time>2020-04-29T09:39:00Z</time>
      </trkpt>
      <trkpt lat="46.76441" lon="-2.03263">
        <ele>8</ele>
        <time>2020-04-29T09:39:07Z</time>
      </trkpt>
      <trkpt lat="46.7642" lon="-2.03222">
        <ele>9</ele>
        <time>2020-04-29T09:39:13Z</time>
      </trkpt>
      <trkpt lat="46.76403" lon="-2.03189">
        <ele>8</ele>
        <time>2020-04-29T09:39:19Z</time>
      </trkpt>
      <trkpt lat="46.7639" lon="-2.03161">
        <ele>8</ele>
        <time>2020-04-29T09:39:23Z</time>
      </trkpt>
      <trkpt lat="46.76376" lon="-2.03124">
        <ele>8</ele>
        <time>2020-04-29T09:39:28Z</time>
      </trkpt>
      <trkpt lat="46.76371" lon="-2.03093">
        <ele>8</ele>
        <time>2020-04-29T09:39:32Z</time>
      </trkpt>
      <trkpt lat="46.76369" lon="-2.0302">
        <ele>9</ele>
        <time>2020-04-29T09:39:41Z</time>
      </trkpt>
      <trkpt lat="46.76367" lon="-2.02994">
        <ele>9</ele>
        <time>2020-04-29T09:39:44Z</time>
      </trkpt>
      <trkpt lat="46.76363" lon="-2.02979">
        <ele>9</ele>
        <time>2020-04-29T09:39:46Z</time>
      </trkpt>
      <trkpt lat="46.76355" lon="-2.02948">
        <ele>9</ele>
        <time>2020-04-29T09:39:50Z</time>
      </trkpt>
      <trkpt lat="46.76341" lon="-2.02921">
        <ele>9</ele>
        <time>2020-04-29T09:39:54Z</time>
      </trkpt>
      <trkpt lat="46.76333" lon="-2.02909">
        <ele>9</ele>
        <time>2020-04-29T09:39:56Z</time>
      </trkpt>
      <trkpt lat="46.76311" lon="-2.02892">
        <ele>9</ele>
        <time>2020-04-29T09:40:00Z</time>
      </trkpt>
      <trkpt lat="46.76284" lon="-2.02874">
        <ele>9</ele>
        <time>2020-04-29T09:40:06Z</time>
      </trkpt>
      <trkpt lat="46.76264" lon="-2.02859">
        <ele>8</ele>
        <time>2020-04-29T09:40:10Z</time>
      </trkpt>
      <trkpt lat="46.76213" lon="-2.02799">
        <ele>8</ele>
        <time>2020-04-29T09:40:21Z</time>
      </trkpt>
      <trkpt lat="46.76168" lon="-2.02765">
        <ele>10</ele>
        <time>2020-04-29T09:40:30Z</time>
      </trkpt>
      <trkpt lat="46.76156" lon="-2.02755">
        <ele>10</ele>
        <time>2020-04-29T09:40:33Z</time>
      </trkpt>
      <trkpt lat="46.7615" lon="-2.02745">
        <ele>10</ele>
        <time>2020-04-29T09:40:34Z</time>
      </trkpt>
      <trkpt lat="46.76141" lon="-2.02735">
        <ele>10</ele>
        <time>2020-04-29T09:40:36Z</time>
      </trkpt>
      <trkpt lat="46.76109" lon="-2.02708">
        <ele>9</ele>
        <time>2020-04-29T09:40:43Z</time>
      </trkpt>
      <trkpt lat="46.7608" lon="-2.02686">
        <ele>8</ele>
        <time>2020-04-29T09:40:49Z</time>
      </trkpt>
      <trkpt lat="46.76061" lon="-2.02668">
        <ele>7</ele>
        <time>2020-04-29T09:40:53Z</time>
      </trkpt>
      <trkpt lat="46.76046" lon="-2.0265">
        <ele>7</ele>
        <time>2020-04-29T09:40:56Z</time>
      </trkpt>
      <trkpt lat="46.75996" lon="-2.02582">
        <ele>6</ele>
        <time>2020-04-29T09:41:08Z</time>
      </trkpt>
      <trkpt lat="46.75983" lon="-2.02567">
        <ele>6</ele>
        <time>2020-04-29T09:41:11Z</time>
      </trkpt>
      <trkpt lat="46.75974" lon="-2.02566">
        <ele>6</ele>
        <time>2020-04-29T09:41:13Z</time>
      </trkpt>
      <trkpt lat="46.75968" lon="-2.02558">
        <ele>6</ele>
        <time>2020-04-29T09:41:14Z</time>
      </trkpt>
      <trkpt lat="46.75968" lon="-2.02551">
        <ele>6</ele>
        <time>2020-04-29T09:41:15Z</time>
      </trkpt>
      <trkpt lat="46.75964" lon="-2.02543">
        <ele>6</ele>
        <time>2020-04-29T09:41:17Z</time>
      </trkpt>
      <trkpt lat="46.75953" lon="-2.02529">
        <ele>6</ele>
        <time>2020-04-29T09:41:19Z</time>
      </trkpt>
      <trkpt lat="46.75938" lon="-2.02519">
        <ele>6</ele>
        <time>2020-04-29T09:41:22Z</time>
      </trkpt>
      <trkpt lat="46.75891" lon="-2.02498">
        <ele>6</ele>
        <time>2020-04-29T09:41:31Z</time>
      </trkpt>
      <trkpt lat="46.75866" lon="-2.02489">
        <ele>6</ele>
        <time>2020-04-29T09:41:35Z</time>
      </trkpt>
      <trkpt lat="46.75843" lon="-2.02484">
        <ele>6</ele>
        <time>2020-04-29T09:41:40Z</time>
      </trkpt>
      <trkpt lat="46.75813" lon="-2.02481">
        <ele>6</ele>
        <time>2020-04-29T09:41:45Z</time>
      </trkpt>
      <trkpt lat="46.75807" lon="-2.02487">
        <ele>6</ele>
        <time>2020-04-29T09:41:46Z</time>
      </trkpt>
      <trkpt lat="46.75802" lon="-2.02493">
        <ele>6</ele>
        <time>2020-04-29T09:41:47Z</time>
      </trkpt>
      <trkpt lat="46.75794" lon="-2.02489">
        <ele>5</ele>
        <time>2020-04-29T09:41:49Z</time>
      </trkpt>
      <trkpt lat="46.75788" lon="-2.02479">
        <ele>5</ele>
        <time>2020-04-29T09:41:50Z</time>
      </trkpt>
      <trkpt lat="46.75782" lon="-2.02477">
        <ele>5</ele>
        <time>2020-04-29T09:41:52Z</time>
      </trkpt>
      <trkpt lat="46.75746" lon="-2.02469">
        <ele>5</ele>
        <time>2020-04-29T09:41:58Z</time>
      </trkpt>
      <trkpt lat="46.75729" lon="-2.02461">
        <ele>5</ele>
        <time>2020-04-29T09:42:01Z</time>
      </trkpt>
      <trkpt lat="46.75701" lon="-2.0244">
        <ele>4</ele>
        <time>2020-04-29T09:42:07Z</time>
      </trkpt>
      <trkpt lat="46.75696" lon="-2.02428">
        <ele>4</ele>
        <time>2020-04-29T09:42:08Z</time>
      </trkpt>
      <trkpt lat="46.7568" lon="-2.02408">
        <ele>4</ele>
        <time>2020-04-29T09:42:12Z</time>
      </trkpt>
      <trkpt lat="46.75679" lon="-2.02407">
        <ele>4</ele>
        <time>2020-04-29T09:42:12Z</time>
      </trkpt>
      <trkpt lat="46.7567" lon="-2.02392">
        <ele>4</ele>
        <time>2020-04-29T09:42:15Z</time>
      </trkpt>
      <trkpt lat="46.75642" lon="-2.02357">
        <ele>4</ele>
        <time>2020-04-29T09:42:21Z</time>
      </trkpt>
      <trkpt lat="46.75628" lon="-2.02342">
        <ele>3</ele>
        <time>2020-04-29T09:42:25Z</time>
      </trkpt>
      <trkpt lat="46.75568" lon="-2.02297">
        <ele>1</ele>
        <time>2020-04-29T09:42:37Z</time>
      </trkpt>
      <trkpt lat="46.75529" lon="-2.02265">
        <ele>1</ele>
        <time>2020-04-29T09:42:45Z</time>
      </trkpt>
      <trkpt lat="46.75519" lon="-2.02255">
        <ele>1</ele>
        <time>2020-04-29T09:42:47Z</time>
      </trkpt>
      <trkpt lat="46.75508" lon="-2.02243">
        <ele>1</ele>
        <time>2020-04-29T09:42:49Z</time>
      </trkpt>
      <trkpt lat="46.75501" lon="-2.02227">
        <ele>1</ele>
        <time>2020-04-29T09:42:51Z</time>
      </trkpt>
      <trkpt lat="46.75495" lon="-2.02214">
        <ele>2</ele>
        <time>2020-04-29T09:42:53Z</time>
      </trkpt>
      <trkpt lat="46.75484" lon="-2.02177">
        <ele>2</ele>
        <time>2020-04-29T09:42:58Z</time>
      </trkpt>
      <trkpt lat="46.75475" lon="-2.0215">
        <ele>3</ele>
        <time>2020-04-29T09:43:02Z</time>
      </trkpt>
      <trkpt lat="46.75462" lon="-2.02123">
        <ele>3</ele>
        <time>2020-04-29T09:43:06Z</time>
      </trkpt>
      <trkpt lat="46.7545" lon="-2.02098">
        <ele>3</ele>
        <time>2020-04-29T09:43:10Z</time>
      </trkpt>
      <trkpt lat="46.75426" lon="-2.02066">
        <ele>2</ele>
        <time>2020-04-29T09:43:15Z</time>
      </trkpt>
      <trkpt lat="46.75376" lon="-2.02005">
        <ele>3</ele>
        <time>2020-04-29T09:43:27Z</time>
      </trkpt>
      <trkpt lat="46.75355" lon="-2.01979">
        <ele>3</ele>
        <time>2020-04-29T09:43:32Z</time>
      </trkpt>
      <trkpt lat="46.75338" lon="-2.01952">
        <ele>3</ele>
        <time>2020-04-29T09:43:36Z</time>
      </trkpt>
      <trkpt lat="46.7532" lon="-2.01921">
        <ele>3</ele>
        <time>2020-04-29T09:43:41Z</time>
      </trkpt>
      <trkpt lat="46.75287" lon="-2.01869">
        <ele>3</ele>
        <time>2020-04-29T09:43:50Z</time>
      </trkpt>
      <trkpt lat="46.75246" lon="-2.01813">
        <ele>2</ele>
        <time>2020-04-29T09:44:00Z</time>
      </trkpt>
      <trkpt lat="46.75197" lon="-2.01744">
        <ele>3</ele>
        <time>2020-04-29T09:44:12Z</time>
      </trkpt>
      <trkpt lat="46.7514" lon="-2.01653">
        <ele>4</ele>
        <time>2020-04-29T09:44:27Z</time>
      </trkpt>
      <trkpt lat="46.75127" lon="-2.01628">
        <ele>4</ele>
        <time>2020-04-29T09:44:31Z</time>
      </trkpt>
      <trkpt lat="46.75121" lon="-2.0163">
        <ele>4</ele>
        <time>2020-04-29T09:44:32Z</time>
      </trkpt>
      <trkpt lat="46.75114" lon="-2.01627">
        <ele>4</ele>
        <time>2020-04-29T09:44:33Z</time>
      </trkpt>
      <trkpt lat="46.75109" lon="-2.01621">
        <ele>4</ele>
        <time>2020-04-29T09:44:34Z</time>
      </trkpt>
      <trkpt lat="46.75106" lon="-2.01611">
        <ele>4</ele>
        <time>2020-04-29T09:44:36Z</time>
      </trkpt>
      <trkpt lat="46.75107" lon="-2.016">
        <ele>4</ele>
        <time>2020-04-29T09:44:37Z</time>
      </trkpt>
      <trkpt lat="46.75112" lon="-2.01591">
        <ele>3</ele>
        <time>2020-04-29T09:44:39Z</time>
      </trkpt>
      <trkpt lat="46.75118" lon="-2.01587">
        <ele>3</ele>
        <time>2020-04-29T09:44:40Z</time>
      </trkpt>
      <trkpt lat="46.75128" lon="-2.01591">
        <ele>3</ele>
        <time>2020-04-29T09:44:42Z</time>
      </trkpt>
      <trkpt lat="46.75139" lon="-2.01585">
        <ele>3</ele>
        <time>2020-04-29T09:44:44Z</time>
      </trkpt>
      <trkpt lat="46.75143" lon="-2.0158">
        <ele>3</ele>
        <time>2020-04-29T09:44:45Z</time>
      </trkpt>
      <trkpt lat="46.7517" lon="-2.01556">
        <ele>2</ele>
        <time>2020-04-29T09:44:50Z</time>
      </trkpt>
      <trkpt lat="46.75225" lon="-2.01519">
        <ele>1</ele>
        <time>2020-04-29T09:45:01Z</time>
      </trkpt>
      <trkpt lat="46.75249" lon="-2.01503">
        <ele>2.9</ele>
        <time>2020-04-29T09:45:06Z</time>
      </trkpt>
      <trkpt lat="46.75263" lon="-2.01497">
        <ele>2.5</ele>
        <time>2020-04-29T09:45:08Z</time>
      </trkpt>
      <trkpt lat="46.75294" lon="-2.0148">
        <ele>1</ele>
        <time>2020-04-29T09:45:14Z</time>
      </trkpt>
      <trkpt lat="46.75321" lon="-2.01466">
        <ele>1</ele>
        <time>2020-04-29T09:45:19Z</time>
      </trkpt>
      <trkpt lat="46.75331" lon="-2.0146">
        <ele>2</ele>
        <time>2020-04-29T09:45:21Z</time>
      </trkpt>
      <trkpt lat="46.7537" lon="-2.01438">
        <ele>1</ele>
        <time>2020-04-29T09:45:29Z</time>
      </trkpt>
      <trkpt lat="46.75378" lon="-2.01436">
        <ele>2</ele>
        <time>2020-04-29T09:45:30Z</time>
      </trkpt>
      <trkpt lat="46.75387" lon="-2.01441">
        <ele>2</ele>
        <time>2020-04-29T09:45:32Z</time>
      </trkpt>
      <trkpt lat="46.75393" lon="-2.01429">
        <ele>2</ele>
        <time>2020-04-29T09:45:34Z</time>
      </trkpt>
      <trkpt lat="46.75432" lon="-2.01389">
        <ele>2</ele>
        <time>2020-04-29T09:45:42Z</time>
      </trkpt>
      <trkpt lat="46.75573" lon="-2.01279">
        <ele>3</ele>
        <time>2020-04-29T09:46:11Z</time>
      </trkpt>
      <trkpt lat="46.75617" lon="-2.0126">
        <ele>4</ele>
        <time>2020-04-29T09:46:19Z</time>
      </trkpt>
      <trkpt lat="46.75668" lon="-2.01239">
        <ele>4</ele>
        <time>2020-04-29T09:46:28Z</time>
      </trkpt>
      <trkpt lat="46.75728" lon="-2.01219">
        <ele>5</ele>
        <time>2020-04-29T09:46:39Z</time>
      </trkpt>
      <trkpt lat="46.75812" lon="-2.0119">
        <ele>5</ele>
        <time>2020-04-29T09:46:54Z</time>
      </trkpt>
      <trkpt lat="46.75853" lon="-2.01174">
        <ele>4</ele>
        <time>2020-04-29T09:47:02Z</time>
      </trkpt>
      <trkpt lat="46.75894" lon="-2.01166">
        <ele>4</ele>
        <time>2020-04-29T09:47:09Z</time>
      </trkpt>
      <trkpt lat="46.7607" lon="-2.01137">
        <ele>5</ele>
        <time>2020-04-29T09:47:41Z</time>
      </trkpt>
      <trkpt lat="46.76149" lon="-2.01152">
        <ele>5</ele>
        <time>2020-04-29T09:47:55Z</time>
      </trkpt>
      <trkpt lat="46.76169" lon="-2.01151">
        <ele>5</ele>
        <time>2020-04-29T09:47:59Z</time>
      </trkpt>
      <trkpt lat="46.76182" lon="-2.0114">
        <ele>5</ele>
        <time>2020-04-29T09:48:01Z</time>
      </trkpt>
      <trkpt lat="46.7618" lon="-2.01172">
        <ele>5</ele>
        <time>2020-04-29T09:48:05Z</time>
      </trkpt>
      <trkpt lat="46.76184" lon="-2.0123">
        <ele>5</ele>
        <time>2020-04-29T09:48:12Z</time>
      </trkpt>
      <trkpt lat="46.7621" lon="-2.01272">
        <ele>5</ele>
        <time>2020-04-29T09:48:19Z</time>
      </trkpt>
      <trkpt lat="46.76237" lon="-2.01298">
        <ele>5</ele>
        <time>2020-04-29T09:48:25Z</time>
      </trkpt>
      <trkpt lat="46.76271" lon="-2.01332">
        <ele>7</ele>
        <time>2020-04-29T09:48:32Z</time>
      </trkpt>
      <trkpt lat="46.763" lon="-2.0137">
        <ele>7</ele>
        <time>2020-04-29T09:48:39Z</time>
      </trkpt>
      <trkpt lat="46.76316" lon="-2.01418">
        <ele>6</ele>
        <time>2020-04-29T09:48:46Z</time>
      </trkpt>
      <trkpt lat="46.76324" lon="-2.01475">
        <ele>8</ele>
        <time>2020-04-29T09:48:53Z</time>
      </trkpt>
      <trkpt lat="46.76341" lon="-2.01515">
        <ele>8</ele>
        <time>2020-04-29T09:48:59Z</time>
      </trkpt>
      <trkpt lat="46.76377" lon="-2.01601">
        <ele>10</ele>
        <time>2020-04-29T09:49:11Z</time>
      </trkpt>
      <trkpt lat="46.76433" lon="-2.01652">
        <ele>8</ele>
        <time>2020-04-29T09:49:23Z</time>
      </trkpt>
      <trkpt lat="46.765" lon="-2.01715">
        <ele>6</ele>
        <time>2020-04-29T09:49:37Z</time>
      </trkpt>
      <trkpt lat="46.76536" lon="-2.01757">
        <ele>5</ele>
        <time>2020-04-29T09:49:45Z</time>
      </trkpt>
      <trkpt lat="46.76608" lon="-2.01816">
        <ele>5</ele>
        <time>2020-04-29T09:50:00Z</time>
      </trkpt>
      <trkpt lat="46.76681" lon="-2.01936">
        <ele>4</ele>
        <time>2020-04-29T09:50:19Z</time>
      </trkpt>
      <trkpt lat="46.76704" lon="-2.01973">
        <ele>5</ele>
        <time>2020-04-29T09:50:25Z</time>
      </trkpt>
      <trkpt lat="46.76729" lon="-2.02001">
        <ele>5</ele>
        <time>2020-04-29T09:50:31Z</time>
      </trkpt>
      <trkpt lat="46.76782" lon="-2.02061">
        <ele>5</ele>
        <time>2020-04-29T09:50:43Z</time>
      </trkpt>
      <trkpt lat="46.76829" lon="-2.02141">
        <ele>4</ele>
        <time>2020-04-29T09:50:56Z</time>
      </trkpt>
      <trkpt lat="46.76865" lon="-2.022">
        <ele>5</ele>
        <time>2020-04-29T09:51:05Z</time>
      </trkpt>
      <trkpt lat="46.76907" lon="-2.02275">
        <ele>6</ele>
        <time>2020-04-29T09:51:17Z</time>
      </trkpt>
      <trkpt lat="46.76961" lon="-2.02364">
        <ele>8</ele>
        <time>2020-04-29T09:51:32Z</time>
      </trkpt>
      <trkpt lat="46.77011" lon="-2.02444">
        <ele>8</ele>
        <time>2020-04-29T09:51:45Z</time>
      </trkpt>
      <trkpt lat="46.77152" lon="-2.02316">
        <ele>7</ele>
        <time>2020-04-29T09:52:14Z</time>
      </trkpt>
      <trkpt lat="46.77169" lon="-2.02296">
        <ele>7</ele>
        <time>2020-04-29T09:52:18Z</time>
      </trkpt>
      <trkpt lat="46.77176" lon="-2.02211">
        <ele>7</ele>
        <time>2020-04-29T09:52:29Z</time>
      </trkpt>
      <trkpt lat="46.77173" lon="-2.021">
        <ele>6</ele>
        <time>2020-04-29T09:52:42Z</time>
      </trkpt>
      <trkpt lat="46.77178" lon="-2.02066">
        <ele>6</ele>
        <time>2020-04-29T09:52:46Z</time>
      </trkpt>
      <trkpt lat="46.77187" lon="-2.02042">
        <ele>6</ele>
        <time>2020-04-29T09:52:50Z</time>
      </trkpt>
      <trkpt lat="46.77209" lon="-2.02019">
        <ele>6</ele>
        <time>2020-04-29T09:52:55Z</time>
      </trkpt>
      <trkpt lat="46.77321" lon="-2.02012">
        <ele>6</ele>
        <time>2020-04-29T09:53:15Z</time>
      </trkpt>
      <trkpt lat="46.77339" lon="-2.01997">
        <ele>6</ele>
        <time>2020-04-29T09:53:18Z</time>
      </trkpt>
      <trkpt lat="46.77373" lon="-2.01959">
        <ele>6</ele>
        <time>2020-04-29T09:53:26Z</time>
      </trkpt>
      <trkpt lat="46.77458" lon="-2.01877">
        <ele>8</ele>
        <time>2020-04-29T09:53:44Z</time>
      </trkpt>
      <trkpt lat="46.77487" lon="-2.01863">
        <ele>8</ele>
        <time>2020-04-29T09:53:49Z</time>
      </trkpt>
      <trkpt lat="46.77518" lon="-2.0187">
        <ele>9</ele>
        <time>2020-04-29T09:53:55Z</time>
      </trkpt>
      <trkpt lat="46.77572" lon="-2.01812">
        <ele>8</ele>
        <time>2020-04-29T09:54:07Z</time>
      </trkpt>
      <trkpt lat="46.77822" lon="-2.02309">
        <ele>8</ele>
        <time>2020-04-29T09:55:22Z</time>
      </trkpt>
      <trkpt lat="46.77826" lon="-2.02379">
        <ele>8</ele>
        <time>2020-04-29T09:55:31Z</time>
      </trkpt>
      <trkpt lat="46.77908" lon="-2.02531">
        <ele>7</ele>
        <time>2020-04-29T09:55:54Z</time>
      </trkpt>
      <trkpt lat="46.77972" lon="-2.02561">
        <ele>8</ele>
        <time>2020-04-29T09:56:06Z</time>
      </trkpt>
      <trkpt lat="46.78024" lon="-2.02616">
        <ele>8</ele>
        <time>2020-04-29T09:56:18Z</time>
      </trkpt>
      <trkpt lat="46.78147" lon="-2.02958">
        <ele>7</ele>
        <time>2020-04-29T09:57:05Z</time>
      </trkpt>
      <trkpt lat="46.78268" lon="-2.03303">
        <ele>8</ele>
        <time>2020-04-29T09:57:52Z</time>
      </trkpt>
      <trkpt lat="46.78274" lon="-2.03466">
        <ele>8</ele>
        <time>2020-04-29T09:58:12Z</time>
      </trkpt>
      <trkpt lat="46.78335" lon="-2.03561">
        <ele>9</ele>
        <time>2020-04-29T09:58:28Z</time>
      </trkpt>
      <trkpt lat="46.78397" lon="-2.03611">
        <ele>7</ele>
        <time>2020-04-29T09:58:40Z</time>
      </trkpt>
      <trkpt lat="46.78402" lon="-2.03653">
        <ele>7</ele>
        <time>2020-04-29T09:58:45Z</time>
      </trkpt>
      <trkpt lat="46.78377" lon="-2.03833">
        <ele>6</ele>
        <time>2020-04-29T09:59:08Z</time>
      </trkpt>
      <trkpt lat="46.78409" lon="-2.03895">
        <ele>6</ele>
        <time>2020-04-29T09:59:17Z</time>
      </trkpt>
      <trkpt lat="46.78428" lon="-2.04048">
        <ele>8</ele>
        <time>2020-04-29T09:59:36Z</time>
      </trkpt>
      <trkpt lat="46.78497" lon="-2.04233">
        <ele>9</ele>
        <time>2020-04-29T10:00:02Z</time>
      </trkpt>
      <trkpt lat="46.78533" lon="-2.04351">
        <ele>9</ele>
        <time>2020-04-29T10:00:18Z</time>
      </trkpt>
      <trkpt lat="46.78581" lon="-2.0442">
        <ele>8</ele>
        <time>2020-04-29T10:00:30Z</time>
      </trkpt>
      <trkpt lat="46.78617" lon="-2.04485">
        <ele>9</ele>
        <time>2020-04-29T10:00:40Z</time>
      </trkpt>
      <trkpt lat="46.78644" lon="-2.04574">
        <ele>12</ele>
        <time>2020-04-29T10:00:52Z</time>
      </trkpt>
      <trkpt lat="46.78727" lon="-2.04723">
        <ele>11</ele>
        <time>2020-04-29T10:01:15Z</time>
      </trkpt>
      <trkpt lat="46.78778" lon="-2.04829">
        <ele>9</ele>
        <time>2020-04-29T10:01:31Z</time>
      </trkpt>
      <trkpt lat="46.78793" lon="-2.04854">
        <ele>8</ele>
        <time>2020-04-29T10:01:35Z</time>
      </trkpt>
      <trkpt lat="46.78799" lon="-2.04867">
        <ele>8</ele>
        <time>2020-04-29T10:01:37Z</time>
      </trkpt>
      <trkpt lat="46.7872" lon="-2.04908">
        <ele>9</ele>
        <time>2020-04-29T10:01:52Z</time>
      </trkpt>
      <trkpt lat="46.78715" lon="-2.04925">
        <ele>9</ele>
        <time>2020-04-29T10:01:54Z</time>
      </trkpt>
      <trkpt lat="46.78708" lon="-2.04949">
        <ele>9</ele>
        <time>2020-04-29T10:01:57Z</time>
      </trkpt>
      <trkpt lat="46.78688" lon="-2.05024">
        <ele>8</ele>
        <time>2020-04-29T10:02:07Z</time>
      </trkpt>
      <trkpt lat="46.78683" lon="-2.05068">
        <ele>8</ele>
        <time>2020-04-29T10:02:12Z</time>
      </trkpt>
      <trkpt lat="46.787" lon="-2.052">
        <ele>9</ele>
        <time>2020-04-29T10:02:29Z</time>
      </trkpt>
      <trkpt lat="46.78702" lon="-2.05228">
        <ele>10</ele>
        <time>2020-04-29T10:02:32Z</time>
      </trkpt>
      <trkpt lat="46.78683" lon="-2.05293">
        <ele>11</ele>
        <time>2020-04-29T10:02:41Z</time>
      </trkpt>
      <trkpt lat="46.78671" lon="-2.05336">
        <ele>11</ele>
        <time>2020-04-29T10:02:46Z</time>
      </trkpt>
      <trkpt lat="46.78671" lon="-2.05372">
        <ele>13</ele>
        <time>2020-04-29T10:02:51Z</time>
      </trkpt>
      <trkpt lat="46.78672" lon="-2.05422">
        <ele>16</ele>
        <time>2020-04-29T10:02:57Z</time>
      </trkpt>
      <trkpt lat="46.78681" lon="-2.05487">
        <ele>16</ele>
        <time>2020-04-29T10:03:05Z</time>
      </trkpt>
      <trkpt lat="46.78682" lon="-2.05506">
        <ele>15</ele>
        <time>2020-04-29T10:03:07Z</time>
      </trkpt>
      <trkpt lat="46.78681" lon="-2.05535">
        <ele>15</ele>
        <time>2020-04-29T10:03:11Z</time>
      </trkpt>
      <trkpt lat="46.78675" lon="-2.05572">
        <ele>14</ele>
        <time>2020-04-29T10:03:16Z</time>
      </trkpt>
      <trkpt lat="46.78669" lon="-2.05603">
        <ele>13</ele>
        <time>2020-04-29T10:03:19Z</time>
      </trkpt>
      <trkpt lat="46.78651" lon="-2.05648">
        <ele>12</ele>
        <time>2020-04-29T10:03:26Z</time>
      </trkpt>
      <trkpt lat="46.78636" lon="-2.05694">
        <ele>11</ele>
        <time>2020-04-29T10:03:32Z</time>
      </trkpt>
      <trkpt lat="46.78644" lon="-2.05753">
        <ele>10</ele>
        <time>2020-04-29T10:03:39Z</time>
      </trkpt>
      <trkpt lat="46.78651" lon="-2.05782">
        <ele>10</ele>
        <time>2020-04-29T10:03:43Z</time>
      </trkpt>
      <trkpt lat="46.78651" lon="-2.05799">
        <ele>10</ele>
        <time>2020-04-29T10:03:45Z</time>
      </trkpt>
      <trkpt lat="46.78641" lon="-2.05857">
        <ele>10</ele>
        <time>2020-04-29T10:03:52Z</time>
      </trkpt>
      <trkpt lat="46.78641" lon="-2.05868">
        <ele>10</ele>
        <time>2020-04-29T10:03:54Z</time>
      </trkpt>
      <trkpt lat="46.78647" lon="-2.05888">
        <ele>11</ele>
        <time>2020-04-29T10:03:56Z</time>
      </trkpt>
      <trkpt lat="46.78664" lon="-2.05913">
        <ele>13</ele>
        <time>2020-04-29T10:04:01Z</time>
      </trkpt>
      <trkpt lat="46.78684" lon="-2.05936">
        <ele>13</ele>
        <time>2020-04-29T10:04:05Z</time>
      </trkpt>
      <trkpt lat="46.78687" lon="-2.05968">
        <ele>13</ele>
        <time>2020-04-29T10:04:09Z</time>
      </trkpt>
      <trkpt lat="46.78682" lon="-2.06041">
        <ele>11</ele>
        <time>2020-04-29T10:04:18Z</time>
      </trkpt>
      <trkpt lat="46.78693" lon="-2.06066">
        <ele>10</ele>
        <time>2020-04-29T10:04:22Z</time>
      </trkpt>
      <trkpt lat="46.78714" lon="-2.06101">
        <ele>10</ele>
        <time>2020-04-29T10:04:27Z</time>
      </trkpt>
      <trkpt lat="46.78749" lon="-2.06145">
        <ele>10</ele>
        <time>2020-04-29T10:04:36Z</time>
      </trkpt>
      <trkpt lat="46.78843" lon="-2.06243">
        <ele>9</ele>
        <time>2020-04-29T10:04:56Z</time>
      </trkpt>
      <trkpt lat="46.78943" lon="-2.06263">
        <ele>12</ele>
        <time>2020-04-29T10:05:14Z</time>
      </trkpt>
      <trkpt lat="46.78987" lon="-2.06258">
        <ele>11</ele>
        <time>2020-04-29T10:05:22Z</time>
      </trkpt>
      <trkpt lat="46.78995" lon="-2.06263">
        <ele>12</ele>
        <time>2020-04-29T10:05:24Z</time>
      </trkpt>
      <trkpt lat="46.79" lon="-2.06281">
        <ele>12</ele>
        <time>2020-04-29T10:05:26Z</time>
      </trkpt>
      <trkpt lat="46.79004" lon="-2.06303">
        <ele>13</ele>
        <time>2020-04-29T10:05:29Z</time>
      </trkpt>
      <trkpt lat="46.79006" lon="-2.06327">
        <ele>14</ele>
        <time>2020-04-29T10:05:32Z</time>
      </trkpt>
      <trkpt lat="46.79007" lon="-2.06331">
        <ele>14</ele>
        <time>2020-04-29T10:05:32Z</time>
      </trkpt>
      <trkpt lat="46.79009" lon="-2.06343">
        <ele>14</ele>
        <time>2020-04-29T10:05:34Z</time>
      </trkpt>
      <trkpt lat="46.7901" lon="-2.06347">
        <ele>14</ele>
        <time>2020-04-29T10:05:34Z</time>
      </trkpt>
      <trkpt lat="46.79015" lon="-2.06366">
        <ele>15</ele>
        <time>2020-04-29T10:05:37Z</time>
      </trkpt>
      <trkpt lat="46.79017" lon="-2.0637">
        <ele>15</ele>
        <time>2020-04-29T10:05:37Z</time>
      </trkpt>
      <trkpt lat="46.79027" lon="-2.06394">
        <ele>16</ele>
        <time>2020-04-29T10:05:41Z</time>
      </trkpt>
      <trkpt lat="46.79029" lon="-2.06398">
        <ele>16</ele>
        <time>2020-04-29T10:05:41Z</time>
      </trkpt>
      <trkpt lat="46.79036" lon="-2.0641">
        <ele>16</ele>
        <time>2020-04-29T10:05:43Z</time>
      </trkpt>
      <trkpt lat="46.79038" lon="-2.06413">
        <ele>16</ele>
        <time>2020-04-29T10:05:44Z</time>
      </trkpt>
      <trkpt lat="46.79044" lon="-2.06421">
        <ele>15</ele>
        <time>2020-04-29T10:05:45Z</time>
      </trkpt>
      <trkpt lat="46.79047" lon="-2.06424">
        <ele>15</ele>
        <time>2020-04-29T10:05:46Z</time>
      </trkpt>
      <trkpt lat="46.7905" lon="-2.06434">
        <ele>15</ele>
        <time>2020-04-29T10:05:47Z</time>
      </trkpt>
      <trkpt lat="46.79051" lon="-2.06436">
        <ele>15</ele>
        <time>2020-04-29T10:05:47Z</time>
      </trkpt>
      <trkpt lat="46.79054" lon="-2.06448">
        <ele>15</ele>
        <time>2020-04-29T10:05:49Z</time>
      </trkpt>
      <trkpt lat="46.79054" lon="-2.0645">
        <ele>15</ele>
        <time>2020-04-29T10:05:49Z</time>
      </trkpt>
      <trkpt lat="46.79078" lon="-2.06481">
        <ele>15</ele>
        <time>2020-04-29T10:05:55Z</time>
      </trkpt>
      <trkpt lat="46.79089" lon="-2.06495">
        <ele>14</ele>
        <time>2020-04-29T10:05:58Z</time>
      </trkpt>
      <trkpt lat="46.79098" lon="-2.06505">
        <ele>14</ele>
        <time>2020-04-29T10:06:00Z</time>
      </trkpt>
      <trkpt lat="46.79105" lon="-2.0652">
        <ele>13</ele>
        <time>2020-04-29T10:06:02Z</time>
      </trkpt>
      <trkpt lat="46.79126" lon="-2.0658">
        <ele>13</ele>
        <time>2020-04-29T10:06:10Z</time>
      </trkpt>
      <trkpt lat="46.7914" lon="-2.06619">
        <ele>12</ele>
        <time>2020-04-29T10:06:15Z</time>
      </trkpt>
      <trkpt lat="46.79144" lon="-2.06637">
        <ele>12</ele>
        <time>2020-04-29T10:06:18Z</time>
      </trkpt>
      <trkpt lat="46.79144" lon="-2.06656">
        <ele>13</ele>
        <time>2020-04-29T10:06:20Z</time>
      </trkpt>
      <trkpt lat="46.79139" lon="-2.06671">
        <ele>13</ele>
        <time>2020-04-29T10:06:22Z</time>
      </trkpt>
      <trkpt lat="46.79141" lon="-2.06684">
        <ele>13</ele>
        <time>2020-04-29T10:06:24Z</time>
      </trkpt>
      <trkpt lat="46.79136" lon="-2.06691">
        <ele>14</ele>
        <time>2020-04-29T10:06:25Z</time>
      </trkpt>
      <trkpt lat="46.79135" lon="-2.06697">
        <ele>14</ele>
        <time>2020-04-29T10:06:26Z</time>
      </trkpt>
      <trkpt lat="46.79132" lon="-2.06713">
        <ele>15</ele>
        <time>2020-04-29T10:06:28Z</time>
      </trkpt>
      <trkpt lat="46.79129" lon="-2.0673">
        <ele>15</ele>
        <time>2020-04-29T10:06:30Z</time>
      </trkpt>
      <trkpt lat="46.79126" lon="-2.0675">
        <ele>15</ele>
        <time>2020-04-29T10:06:32Z</time>
      </trkpt>
      <trkpt lat="46.79122" lon="-2.06774">
        <ele>16</ele>
        <time>2020-04-29T10:06:35Z</time>
      </trkpt>
      <trkpt lat="46.79118" lon="-2.06793">
        <ele>16</ele>
        <time>2020-04-29T10:06:38Z</time>
      </trkpt>
      <trkpt lat="46.79114" lon="-2.06818">
        <ele>16</ele>
        <time>2020-04-29T10:06:41Z</time>
      </trkpt>
      <trkpt lat="46.7911" lon="-2.06839">
        <ele>15</ele>
        <time>2020-04-29T10:06:43Z</time>
      </trkpt>
      <trkpt lat="46.79105" lon="-2.06874">
        <ele>14</ele>
        <time>2020-04-29T10:06:48Z</time>
      </trkpt>
      <trkpt lat="46.79099" lon="-2.06906">
        <ele>13</ele>
        <time>2020-04-29T10:06:52Z</time>
      </trkpt>
      <trkpt lat="46.79094" lon="-2.06935">
        <ele>12</ele>
        <time>2020-04-29T10:06:56Z</time>
      </trkpt>
      <trkpt lat="46.79092" lon="-2.06951">
        <ele>12</ele>
        <time>2020-04-29T10:06:57Z</time>
      </trkpt>
      <trkpt lat="46.79088" lon="-2.06978">
        <ele>11</ele>
        <time>2020-04-29T10:07:01Z</time>
      </trkpt>
      <trkpt lat="46.79085" lon="-2.06992">
        <ele>10</ele>
        <time>2020-04-29T10:07:03Z</time>
      </trkpt>
      <trkpt lat="46.79081" lon="-2.07009">
        <ele>10</ele>
        <time>2020-04-29T10:07:05Z</time>
      </trkpt>
      <trkpt lat="46.79077" lon="-2.07028">
        <ele>10</ele>
        <time>2020-04-29T10:07:07Z</time>
      </trkpt>
      <trkpt lat="46.79069" lon="-2.0705">
        <ele>10</ele>
        <time>2020-04-29T10:07:10Z</time>
      </trkpt>
      <trkpt lat="46.79059" lon="-2.07072">
        <ele>10</ele>
        <time>2020-04-29T10:07:14Z</time>
      </trkpt>
      <trkpt lat="46.79047" lon="-2.07092">
        <ele>10</ele>
        <time>2020-04-29T10:07:17Z</time>
      </trkpt>
      <trkpt lat="46.79031" lon="-2.0712">
        <ele>10</ele>
        <time>2020-04-29T10:07:21Z</time>
      </trkpt>
      <trkpt lat="46.79022" lon="-2.07134">
        <ele>10</ele>
        <time>2020-04-29T10:07:24Z</time>
      </trkpt>
      <trkpt lat="46.79002" lon="-2.07162">
        <ele>10</ele>
        <time>2020-04-29T10:07:28Z</time>
      </trkpt>
      <trkpt lat="46.78977" lon="-2.072">
        <ele>9</ele>
        <time>2020-04-29T10:07:35Z</time>
      </trkpt>
      <trkpt lat="46.78969" lon="-2.07221">
        <ele>9</ele>
        <time>2020-04-29T10:07:38Z</time>
      </trkpt>
      <trkpt lat="46.78965" lon="-2.07233">
        <ele>9</ele>
        <time>2020-04-29T10:07:39Z</time>
      </trkpt>
      <trkpt lat="46.78962" lon="-2.07256">
        <ele>8</ele>
        <time>2020-04-29T10:07:42Z</time>
      </trkpt>
      <trkpt lat="46.78959" lon="-2.07269">
        <ele>8</ele>
        <time>2020-04-29T10:07:44Z</time>
      </trkpt>
      <trkpt lat="46.7896" lon="-2.07332">
        <ele>7</ele>
        <time>2020-04-29T10:07:52Z</time>
      </trkpt>
      <trkpt lat="46.78961" lon="-2.07383">
        <ele>7</ele>
        <time>2020-04-29T10:07:58Z</time>
      </trkpt>
      <trkpt lat="46.78962" lon="-2.07447">
        <ele>7</ele>
        <time>2020-04-29T10:08:06Z</time>
      </trkpt>
      <trkpt lat="46.78963" lon="-2.07494">
        <ele>7</ele>
        <time>2020-04-29T10:08:11Z</time>
      </trkpt>
      <trkpt lat="46.78965" lon="-2.07524">
        <ele>6</ele>
        <time>2020-04-29T10:08:15Z</time>
      </trkpt>
      <trkpt lat="46.78966" lon="-2.07575">
        <ele>6</ele>
        <time>2020-04-29T10:08:21Z</time>
      </trkpt>
      <trkpt lat="46.78966" lon="-2.07648">
        <ele>6</ele>
        <time>2020-04-29T10:08:30Z</time>
      </trkpt>
      <trkpt lat="46.78966" lon="-2.07667">
        <ele>6</ele>
        <time>2020-04-29T10:08:32Z</time>
      </trkpt>
      <trkpt lat="46.78958" lon="-2.07688">
        <ele>5</ele>
        <time>2020-04-29T10:08:35Z</time>
      </trkpt>
      <trkpt lat="46.78965" lon="-2.07712">
        <ele>5</ele>
        <time>2020-04-29T10:08:39Z</time>
      </trkpt>
      <trkpt lat="46.78966" lon="-2.07757">
        <ele>5</ele>
        <time>2020-04-29T10:08:44Z</time>
      </trkpt>
      <trkpt lat="46.78966" lon="-2.07791">
        <ele>5</ele>
        <time>2020-04-29T10:08:48Z</time>
      </trkpt>
      <trkpt lat="46.78967" lon="-2.07838">
        <ele>5</ele>
        <time>2020-04-29T10:08:54Z</time>
      </trkpt>
      <trkpt lat="46.78969" lon="-2.07896">
        <ele>4</ele>
        <time>2020-04-29T10:09:01Z</time>
      </trkpt>
      <trkpt lat="46.78967" lon="-2.07922">
        <ele>4</ele>
        <time>2020-04-29T10:09:04Z</time>
      </trkpt>
      <trkpt lat="46.78966" lon="-2.07933">
        <ele>4</ele>
        <time>2020-04-29T10:09:06Z</time>
      </trkpt>
      <trkpt lat="46.78966" lon="-2.07954">
        <ele>4</ele>
        <time>2020-04-29T10:09:08Z</time>
      </trkpt>
      <trkpt lat="46.78973" lon="-2.07946">
        <ele>4</ele>
        <time>2020-04-29T10:09:10Z</time>
      </trkpt>
      <trkpt lat="46.78981" lon="-2.07941">
        <ele>4</ele>
        <time>2020-04-29T10:09:11Z</time>
      </trkpt>
      <trkpt lat="46.78995" lon="-2.07939">
        <ele>4</ele>
        <time>2020-04-29T10:09:14Z</time>
      </trkpt>
      <trkpt lat="46.79006" lon="-2.07943">
        <ele>4</ele>
        <time>2020-04-29T10:09:16Z</time>
      </trkpt>
      <trkpt lat="46.79017" lon="-2.07955">
        <ele>5</ele>
        <time>2020-04-29T10:09:18Z</time>
      </trkpt>
      <trkpt lat="46.7902" lon="-2.07958">
        <ele>5</ele>
        <time>2020-04-29T10:09:19Z</time>
      </trkpt>
      <trkpt lat="46.79024" lon="-2.07968">
        <ele>5</ele>
        <time>2020-04-29T10:09:20Z</time>
      </trkpt>
      <trkpt lat="46.79027" lon="-2.07983">
        <ele>5</ele>
        <time>2020-04-29T10:09:22Z</time>
      </trkpt>
      <trkpt lat="46.79051" lon="-2.08012">
        <ele>5</ele>
        <time>2020-04-29T10:09:28Z</time>
      </trkpt>
      <trkpt lat="46.79062" lon="-2.08028">
        <ele>5</ele>
        <time>2020-04-29T10:09:30Z</time>
      </trkpt>
      <trkpt lat="46.79091" lon="-2.08057">
        <ele>4</ele>
        <time>2020-04-29T10:09:37Z</time>
      </trkpt>
      <trkpt lat="46.79116" lon="-2.08083">
        <ele>4</ele>
        <time>2020-04-29T10:09:42Z</time>
      </trkpt>
      <trkpt lat="46.79167" lon="-2.08131">
        <ele>5</ele>
        <time>2020-04-29T10:09:53Z</time>
      </trkpt>
      <trkpt lat="46.79181" lon="-2.08143">
        <ele>5</ele>
        <time>2020-04-29T10:09:56Z</time>
      </trkpt>
      <trkpt lat="46.79165" lon="-2.0818">
        <ele>5</ele>
        <time>2020-04-29T10:10:01Z</time>
      </trkpt>
      <trkpt lat="46.7915" lon="-2.08167">
        <ele>4</ele>
        <time>2020-04-29T10:10:04Z</time>
      </trkpt>
      <trkpt lat="46.79125" lon="-2.08224">
        <ele>4</ele>
        <time>2020-04-29T10:10:13Z</time>
      </trkpt>
      <trkpt lat="46.79109" lon="-2.08261">
        <ele>4</ele>
        <time>2020-04-29T10:10:18Z</time>
      </trkpt>
      <trkpt lat="46.79089" lon="-2.0829">
        <ele>4</ele>
        <time>2020-04-29T10:10:23Z</time>
      </trkpt>
      <trkpt lat="46.79071" lon="-2.08307">
        <ele>5</ele>
        <time>2020-04-29T10:10:27Z</time>
      </trkpt>
      <trkpt lat="46.79058" lon="-2.0832">
        <ele>5</ele>
        <time>2020-04-29T10:10:29Z</time>
      </trkpt>
      <trkpt lat="46.79043" lon="-2.0833">
        <ele>5</ele>
        <time>2020-04-29T10:10:32Z</time>
      </trkpt>
      <trkpt lat="46.79013" lon="-2.08302">
        <ele>5</ele>
        <time>2020-04-29T10:10:39Z</time>
      </trkpt>
      <trkpt lat="46.78997" lon="-2.08289">
        <ele>5</ele>
        <time>2020-04-29T10:10:42Z</time>
      </trkpt>
      <trkpt lat="46.78988" lon="-2.08288">
        <ele>5</ele>
        <time>2020-04-29T10:10:44Z</time>
      </trkpt>
      <trkpt lat="46.78976" lon="-2.08291">
        <ele>6</ele>
        <time>2020-04-29T10:10:46Z</time>
      </trkpt>
      <trkpt lat="46.78964" lon="-2.08303">
        <ele>7</ele>
        <time>2020-04-29T10:10:48Z</time>
      </trkpt>
      <trkpt lat="46.78945" lon="-2.08332">
        <ele>8</ele>
        <time>2020-04-29T10:10:53Z</time>
      </trkpt>
      <trkpt lat="46.78923" lon="-2.08382">
        <ele>9</ele>
        <time>2020-04-29T10:11:01Z</time>
      </trkpt>
      <trkpt lat="46.78921" lon="-2.08389">
        <ele>9</ele>
        <time>2020-04-29T10:11:01Z</time>
      </trkpt>
      <trkpt lat="46.78915" lon="-2.08387">
        <ele>9</ele>
        <time>2020-04-29T10:11:03Z</time>
      </trkpt>
      <trkpt lat="46.78911" lon="-2.08389">
        <ele>9</ele>
        <time>2020-04-29T10:11:03Z</time>
      </trkpt>
      <trkpt lat="46.78902" lon="-2.08385">
        <ele>8</ele>
        <time>2020-04-29T10:11:05Z</time>
      </trkpt>
      <trkpt lat="46.78889" lon="-2.08376">
        <ele>8</ele>
        <time>2020-04-29T10:11:08Z</time>
      </trkpt>
      <trkpt lat="46.78869" lon="-2.08359">
        <ele>8</ele>
        <time>2020-04-29T10:11:12Z</time>
      </trkpt>
      <trkpt lat="46.78863" lon="-2.08359">
        <ele>8</ele>
        <time>2020-04-29T10:11:13Z</time>
      </trkpt>
      <trkpt lat="46.78858" lon="-2.08359">
        <ele>8</ele>
        <time>2020-04-29T10:11:14Z</time>
      </trkpt>
      <trkpt lat="46.78855" lon="-2.08361">
        <ele>8</ele>
        <time>2020-04-29T10:11:14Z</time>
      </trkpt>
      <trkpt lat="46.78846" lon="-2.0836">
        <ele>7</ele>
        <time>2020-04-29T10:11:16Z</time>
      </trkpt>
      <trkpt lat="46.78838" lon="-2.08354">
        <ele>7</ele>
        <time>2020-04-29T10:11:17Z</time>
      </trkpt>
      <trkpt lat="46.78832" lon="-2.08343">
        <ele>8</ele>
        <time>2020-04-29T10:11:19Z</time>
      </trkpt>
      <trkpt lat="46.78808" lon="-2.08294">
        <ele>10</ele>
        <time>2020-04-29T10:11:26Z</time>
      </trkpt>
      <trkpt lat="46.78794" lon="-2.08266">
        <ele>11</ele>
        <time>2020-04-29T10:11:31Z</time>
      </trkpt>
      <trkpt lat="46.78773" lon="-2.08222">
        <ele>11</ele>
        <time>2020-04-29T10:11:37Z</time>
      </trkpt>
      <trkpt lat="46.78747" lon="-2.08162">
        <ele>11</ele>
        <time>2020-04-29T10:11:46Z</time>
      </trkpt>
      <trkpt lat="46.7871" lon="-2.08075">
        <ele>8</ele>
        <time>2020-04-29T10:11:58Z</time>
      </trkpt>
      <trkpt lat="46.78665" lon="-2.07969">
        <ele>7</ele>
        <time>2020-04-29T10:12:14Z</time>
      </trkpt>
      <trkpt lat="46.78632" lon="-2.07886">
        <ele>5</ele>
        <time>2020-04-29T10:12:25Z</time>
      </trkpt>
      <trkpt lat="46.78594" lon="-2.07798">
        <ele>4</ele>
        <time>2020-04-29T10:12:38Z</time>
      </trkpt>
      <trkpt lat="46.78554" lon="-2.07705">
        <ele>6</ele>
        <time>2020-04-29T10:12:51Z</time>
      </trkpt>
      <trkpt lat="46.78537" lon="-2.07665">
        <ele>7</ele>
        <time>2020-04-29T10:12:57Z</time>
      </trkpt>
      <trkpt lat="46.78522" lon="-2.07629">
        <ele>7</ele>
        <time>2020-04-29T10:13:02Z</time>
      </trkpt>
      <trkpt lat="46.78501" lon="-2.0758">
        <ele>8</ele>
        <time>2020-04-29T10:13:09Z</time>
      </trkpt>
      <trkpt lat="46.78488" lon="-2.07563">
        <ele>7</ele>
        <time>2020-04-29T10:13:12Z</time>
      </trkpt>
      <trkpt lat="46.7848" lon="-2.07534">
        <ele>7</ele>
        <time>2020-04-29T10:13:16Z</time>
      </trkpt>
      <trkpt lat="46.78459" lon="-2.07482">
        <ele>5</ele>
        <time>2020-04-29T10:13:23Z</time>
      </trkpt>
      <trkpt lat="46.78423" lon="-2.07401">
        <ele>5</ele>
        <time>2020-04-29T10:13:35Z</time>
      </trkpt>
      <trkpt lat="46.78387" lon="-2.07319">
        <ele>6</ele>
        <time>2020-04-29T10:13:47Z</time>
      </trkpt>
      <trkpt lat="46.78373" lon="-2.07285">
        <ele>6</ele>
        <time>2020-04-29T10:13:52Z</time>
      </trkpt>
      <trkpt lat="46.78368" lon="-2.07267">
        <ele>6</ele>
        <time>2020-04-29T10:13:54Z</time>
      </trkpt>
      <trkpt lat="46.78357" lon="-2.07255">
        <ele>6</ele>
        <time>2020-04-29T10:13:57Z</time>
      </trkpt>
      <trkpt lat="46.7833" lon="-2.07197">
        <ele>6</ele>
        <time>2020-04-29T10:14:05Z</time>
      </trkpt>
      <trkpt lat="46.78288" lon="-2.07112">
        <ele>5</ele>
        <time>2020-04-29T10:14:18Z</time>
      </trkpt>
      <trkpt lat="46.78282" lon="-2.0709">
        <ele>6</ele>
        <time>2020-04-29T10:14:21Z</time>
      </trkpt>
      <trkpt lat="46.78273" lon="-2.07074">
        <ele>6</ele>
        <time>2020-04-29T10:14:23Z</time>
      </trkpt>
      <trkpt lat="46.7825" lon="-2.07028">
        <ele>8</ele>
        <time>2020-04-29T10:14:30Z</time>
      </trkpt>
      <trkpt lat="46.78235" lon="-2.07015">
        <ele>7</ele>
        <time>2020-04-29T10:14:33Z</time>
      </trkpt>
      <trkpt lat="46.78203" lon="-2.06956">
        <ele>6</ele>
        <time>2020-04-29T10:14:43Z</time>
      </trkpt>
      <trkpt lat="46.78157" lon="-2.06875">
        <ele>5</ele>
        <time>2020-04-29T10:14:55Z</time>
      </trkpt>
      <trkpt lat="46.78154" lon="-2.06861">
        <ele>5</ele>
        <time>2020-04-29T10:14:57Z</time>
      </trkpt>
      <trkpt lat="46.78153" lon="-2.06841">
        <ele>6</ele>
        <time>2020-04-29T10:15:00Z</time>
      </trkpt>
      <trkpt lat="46.7815" lon="-2.06831">
        <ele>6</ele>
        <time>2020-04-29T10:15:01Z</time>
      </trkpt>
      <trkpt lat="46.78143" lon="-2.06819">
        <ele>6</ele>
        <time>2020-04-29T10:15:03Z</time>
      </trkpt>
      <trkpt lat="46.7814" lon="-2.06812">
        <ele>6</ele>
        <time>2020-04-29T10:15:04Z</time>
      </trkpt>
      <trkpt lat="46.78137" lon="-2.06796">
        <ele>6</ele>
        <time>2020-04-29T10:15:06Z</time>
      </trkpt>
      <trkpt lat="46.78128" lon="-2.06783">
        <ele>6</ele>
        <time>2020-04-29T10:15:08Z</time>
      </trkpt>
    </trkseg>
  </trk>
</gpx>